createdAt,value
2023-02-18T00:00:28.078Z,9.08
2023-02-18T00:02:54.619Z,9.12
2023-02-18T00:05:22.286Z,9.12
2023-02-18T00:07:49.057Z,9.14
2023-02-18T00:10:16.281Z,9.16
2023-02-18T00:12:43.380Z,9.16
2023-02-18T00:15:10.290Z,9.15
2023-02-18T00:17:37.244Z,9.15
2023-02-18T00:20:06.186Z,9.15
2023-02-18T00:22:33.293Z,9.16
2023-02-18T00:24:59.821Z,9.16
2023-02-18T00:27:26.370Z,9.16
2023-02-18T00:29:53.105Z,9.17
2023-02-18T00:32:19.592Z,9.17
2023-02-18T00:34:46.058Z,9.17
2023-02-18T00:37:13.765Z,9.17
2023-02-18T00:39:40.395Z,9.18
2023-02-18T00:42:07.250Z,9.17
2023-02-18T00:44:33.773Z,9.18
2023-02-18T00:47:00.312Z,9.20
2023-02-18T00:49:26.858Z,9.20
2023-02-18T00:51:53.325Z,9.21
2023-02-18T00:54:19.897Z,9.21
2023-02-18T00:56:46.828Z,9.19
2023-02-18T00:59:13.274Z,9.19
2023-02-18T01:01:40.016Z,9.19
2023-02-18T01:04:06.609Z,9.20
2023-02-18T01:06:33.259Z,9.20
2023-02-18T01:08:59.810Z,9.21
2023-02-18T01:11:26.596Z,9.21
2023-02-18T01:13:53.415Z,9.20
2023-02-18T01:16:20.506Z,9.21
2023-02-18T01:18:47.533Z,9.24
2023-02-18T01:21:14.169Z,9.29
2023-02-18T01:23:41.709Z,9.43
2023-02-18T01:26:09.657Z,9.54
2023-02-18T01:28:36.938Z,9.65
2023-02-18T01:31:11.534Z,9.80
2023-02-18T01:33:38.999Z,9.94
2023-02-18T01:36:07.397Z,10.04
2023-02-18T01:38:34.470Z,10.13
2023-02-18T01:41:01.014Z,10.17
2023-02-18T01:43:27.763Z,10.19
2023-02-18T01:45:57.608Z,10.20
2023-02-18T01:48:34.342Z,10.23
2023-02-18T01:51:27.543Z,10.27
2023-02-18T01:54:06.308Z,10.35
2023-02-18T01:56:39.681Z,10.35
2023-02-18T01:59:11.584Z,10.32
2023-02-18T02:01:41.933Z,10.33
2023-02-18T02:04:08.493Z,10.32
2023-02-18T02:06:35.192Z,10.30
2023-02-18T02:09:06.922Z,10.27
2023-02-18T02:11:45.841Z,10.25
2023-02-18T02:14:50.779Z,10.34
2023-02-18T02:17:28.400Z,10.41
2023-02-18T02:20:36.153Z,10.28
2023-02-18T02:23:08.642Z,9.30
2023-02-18T02:25:50.596Z,8.74
2023-02-18T02:29:22.352Z,8.34
2023-02-18T02:32:05.805Z,7.91
2023-02-18T02:34:51.456Z,7.73
2023-02-18T02:37:20.796Z,7.52
2023-02-18T02:40:09.552Z,7.43
2023-02-18T02:43:20.665Z,7.39
2023-02-18T02:46:07.295Z,7.30
2023-02-18T02:48:49.240Z,7.31
2023-02-18T02:51:28.384Z,7.41
2023-02-18T02:53:55.030Z,7.55
2023-02-18T02:56:24.647Z,7.61
2023-02-18T02:59:04.442Z,7.66
2023-02-18T03:01:47.943Z,7.69
2023-02-18T03:04:42.129Z,7.75
2023-02-18T03:07:21.334Z,7.90
2023-02-18T03:10:26.954Z,8.05
2023-02-18T03:13:15.206Z,8.14
2023-02-18T03:15:59.945Z,8.25
2023-02-18T03:18:41.327Z,8.27
2023-02-18T03:21:13.912Z,8.30
2023-02-18T03:24:32.901Z,8.40
2023-02-18T03:27:05.563Z,8.51
2023-02-18T03:29:33.641Z,8.59
2023-02-18T03:32:05.643Z,8.63
2023-02-18T03:34:39.538Z,8.67
2023-02-18T03:37:07.446Z,8.75
2023-02-18T03:39:36.003Z,8.80
2023-02-18T03:42:02.550Z,8.77
2023-02-18T03:44:31.256Z,8.77
2023-02-18T03:46:58.084Z,8.81
2023-02-18T03:49:24.639Z,8.82
2023-02-18T03:51:51.148Z,8.77
2023-02-18T03:54:17.601Z,8.71
2023-02-18T03:56:44.361Z,8.71
2023-02-18T03:59:12.115Z,8.78
2023-02-18T04:01:39.052Z,8.82
2023-02-18T04:04:06.169Z,8.82
2023-02-18T04:06:32.776Z,8.77
2023-02-18T04:08:59.229Z,8.75
2023-02-18T04:11:25.950Z,8.74
2023-02-18T04:13:52.435Z,8.79
2023-02-18T04:16:22.644Z,8.79
2023-02-18T04:18:49.171Z,8.82
2023-02-18T04:21:15.866Z,8.82
2023-02-18T04:23:42.348Z,8.78
2023-02-18T04:26:09.169Z,8.79
2023-02-18T04:28:36.044Z,8.77
2023-02-18T04:31:02.664Z,8.73
2023-02-18T04:33:29.754Z,8.77
2023-02-18T04:35:56.384Z,8.75
2023-02-18T04:38:23.426Z,8.72
2023-02-18T04:40:49.986Z,8.71
2023-02-18T04:43:16.833Z,8.68
2023-02-18T04:45:43.378Z,8.69
2023-02-18T04:48:10.121Z,8.67
2023-02-18T04:50:36.878Z,8.66
2023-02-18T04:53:03.448Z,8.69
2023-02-18T04:55:29.958Z,8.69
2023-02-18T04:57:56.801Z,8.69
2023-02-18T05:00:23.438Z,8.72
2023-02-18T05:02:50.118Z,8.78
2023-02-18T05:05:16.680Z,8.82
2023-02-18T05:07:43.496Z,8.80
2023-02-18T05:10:14.530Z,8.76
2023-02-18T05:12:41.322Z,8.71
2023-02-18T05:15:08.864Z,8.72
2023-02-18T05:17:35.583Z,8.72
2023-02-18T05:20:02.133Z,8.71
2023-02-18T05:22:28.562Z,8.62
2023-02-18T05:24:55.213Z,8.54
2023-02-18T05:27:21.815Z,8.46
2023-02-18T05:29:49.075Z,8.51
2023-02-18T05:32:15.538Z,8.50
2023-02-18T05:34:42.294Z,8.49
2023-02-18T05:37:09.367Z,8.43
2023-02-18T05:39:36.412Z,8.35
2023-02-18T05:42:03.460Z,8.34
2023-02-18T05:44:30.213Z,8.39
2023-02-18T05:47:02.293Z,8.44
2023-02-18T05:49:30.301Z,8.45
2023-02-18T05:51:57.492Z,8.48
2023-02-18T05:54:24.171Z,8.46
2023-02-18T05:56:51.816Z,8.42
2023-02-18T05:59:18.980Z,8.37
2023-02-18T06:01:46.769Z,8.29
2023-02-18T06:04:13.901Z,8.27
2023-02-18T06:06:40.930Z,8.25
2023-02-18T06:09:08.519Z,8.21
2023-02-18T06:11:35.825Z,8.22
2023-02-18T06:14:03.161Z,8.27
2023-02-18T06:16:30.211Z,8.28
2023-02-18T06:18:56.864Z,8.34
2023-02-18T06:21:23.491Z,8.45
2023-02-18T06:23:50.431Z,8.54
2023-02-18T06:26:16.931Z,8.61
2023-02-18T06:28:43.510Z,8.64
2023-02-18T06:31:10.124Z,8.63
2023-02-18T06:33:36.794Z,8.63
2023-02-18T06:36:09.084Z,8.63
2023-02-18T06:38:36.121Z,8.62
2023-02-18T06:41:03.561Z,8.59
2023-02-18T06:43:30.536Z,8.62
2023-02-18T06:45:57.282Z,8.65
2023-02-18T06:48:24.072Z,8.66
2023-02-18T06:50:51.067Z,8.72
2023-02-18T06:53:17.589Z,8.88
2023-02-18T06:55:44.886Z,9.05
2023-02-18T06:58:12.793Z,9.24
2023-02-18T07:00:39.618Z,9.49
2023-02-18T07:03:07.371Z,9.72
2023-02-18T07:05:34.731Z,9.94
2023-02-18T07:08:01.701Z,10.08
2023-02-18T07:10:28.510Z,10.05
2023-02-18T07:12:55.068Z,10.04
2023-02-18T07:15:21.611Z,9.96
2023-02-18T07:17:48.459Z,9.94
2023-02-18T07:20:14.910Z,9.89
2023-02-18T07:22:41.641Z,9.84
2023-02-18T07:25:08.525Z,9.85
2023-02-18T07:27:35.134Z,9.78
2023-02-18T07:30:01.726Z,9.77
2023-02-18T07:32:28.190Z,9.76
2023-02-18T07:34:54.774Z,9.79
2023-02-18T07:37:21.411Z,9.80
2023-02-18T07:39:47.850Z,9.83
2023-02-18T07:42:14.902Z,10.01
2023-02-18T07:44:42.326Z,10.36
2023-02-18T07:47:12.783Z,10.92
2023-02-18T07:49:39.660Z,11.34
2023-02-18T07:52:06.103Z,11.35
2023-02-18T07:54:32.964Z,11.13
2023-02-18T07:56:59.579Z,10.86
2023-02-18T07:59:26.115Z,10.60
2023-02-18T08:01:52.679Z,10.46
2023-02-18T08:04:19.201Z,10.32
2023-02-18T08:06:49.047Z,10.21
2023-02-18T08:09:16.939Z,10.08
2023-02-18T08:11:43.839Z,9.96
2023-02-18T08:14:10.397Z,9.90
2023-02-18T08:16:37.303Z,9.89
2023-02-18T08:19:04.483Z,9.87
2023-02-18T08:21:31.552Z,9.87
2023-02-18T08:23:59.545Z,9.86
2023-02-18T08:26:26.272Z,9.85
2023-02-18T08:28:52.838Z,9.85
2023-02-18T08:31:29.067Z,9.84
2023-02-18T08:33:56.843Z,9.84
2023-02-18T08:36:23.720Z,9.82
2023-02-18T08:38:50.654Z,9.81
2023-02-18T08:41:17.585Z,9.78
2023-02-18T08:43:45.071Z,9.75
2023-02-18T08:46:15.970Z,9.73
2023-02-18T08:48:44.553Z,9.66
2023-02-18T08:51:13.719Z,9.63
2023-02-18T08:53:40.614Z,9.62
2023-02-18T08:56:09.595Z,9.60
2023-02-18T08:58:37.536Z,9.61
2023-02-18T09:01:10.304Z,9.63
2023-02-18T09:03:37.369Z,9.63
2023-02-18T09:06:04.762Z,9.66
2023-02-18T09:08:31.378Z,9.75
2023-02-18T09:10:59.820Z,9.83
2023-02-18T09:13:26.928Z,9.88
2023-02-18T09:16:02.047Z,9.97
2023-02-18T09:18:29.006Z,10.03
2023-02-18T09:20:57.530Z,10.08
2023-02-18T09:23:30.189Z,10.23
2023-02-18T09:25:57.074Z,10.37
2023-02-18T09:28:24.105Z,10.51
2023-02-18T09:30:51.246Z,10.76
2023-02-18T09:33:18.894Z,10.85
2023-02-18T09:35:46.761Z,11.00
2023-02-18T09:38:16.262Z,11.06
2023-02-18T09:40:48.613Z,11.07
2023-02-18T09:43:33.949Z,11.10
2023-02-18T09:46:02.168Z,10.96
2023-02-18T09:48:32.900Z,10.87
2023-02-18T09:51:00.160Z,10.82
2023-02-18T09:53:27.119Z,10.74
2023-02-18T09:55:56.622Z,10.66
2023-02-18T09:58:30.628Z,10.60
2023-02-18T10:01:15.467Z,10.60
2023-02-18T10:03:42.380Z,10.62
2023-02-18T10:06:26.257Z,10.65
2023-02-18T10:08:55.148Z,10.68
2023-02-18T10:11:42.958Z,10.61
2023-02-18T10:14:12.483Z,10.56
2023-02-18T10:16:40.335Z,10.51
2023-02-18T10:19:38.148Z,10.49
2023-02-18T10:22:08.171Z,10.53
2023-02-18T10:24:43.217Z,10.54
2023-02-18T10:27:15.061Z,10.55
2023-02-18T10:29:41.734Z,10.54
2023-02-18T10:32:24.007Z,10.46
2023-02-18T10:35:15.824Z,10.45
2023-02-18T10:37:42.272Z,10.53
2023-02-18T10:40:33.736Z,10.53
2023-02-18T10:43:06.318Z,10.50
2023-02-18T10:45:57.672Z,10.51
2023-02-18T10:48:42.625Z,10.57
2023-02-18T10:51:16.897Z,10.62
2023-02-18T10:53:46.716Z,10.62
2023-02-18T10:56:34.535Z,10.54
2023-02-18T10:59:22.650Z,10.46
2023-02-18T11:02:17.530Z,10.37
2023-02-18T11:04:46.330Z,10.27
2023-02-18T11:07:16.678Z,10.19
2023-02-18T11:09:49.952Z,10.19
2023-02-18T11:12:29.142Z,10.16
2023-02-18T11:15:19.687Z,10.14
2023-02-18T11:17:49.113Z,10.08
2023-02-18T11:20:24.430Z,10.04
2023-02-18T11:22:51.394Z,10.03
2023-02-18T11:25:24.952Z,10.00
2023-02-18T11:27:56.496Z,9.95
2023-02-18T11:30:32.458Z,9.94
2023-02-18T11:33:03.406Z,9.93
2023-02-18T11:35:32.162Z,9.93
2023-02-18T11:38:01.046Z,9.93
2023-02-18T11:40:34.405Z,9.90
2023-02-18T11:43:17.756Z,9.93
2023-02-18T11:45:44.770Z,9.92
2023-02-18T11:48:17.835Z,9.93
2023-02-18T11:50:49.885Z,9.93
2023-02-18T11:53:26.734Z,9.94
2023-02-18T11:55:56.360Z,9.95
2023-02-18T11:58:23.079Z,9.95
2023-02-18T12:00:51.111Z,9.96
2023-02-18T12:03:52.097Z,9.96
2023-02-18T12:06:24.907Z,9.95
2023-02-18T12:08:58.186Z,9.91
2023-02-18T12:11:33.147Z,9.91
2023-02-18T12:14:00.254Z,9.90
2023-02-18T12:16:46.022Z,9.84
2023-02-18T12:19:44.095Z,9.81
2023-02-18T12:22:26.905Z,9.76
2023-02-18T12:25:03.729Z,9.78
2023-02-18T12:27:42.460Z,9.78
2023-02-18T12:30:46.413Z,9.80
2023-02-18T12:33:29.422Z,9.82
2023-02-18T12:36:17.347Z,9.82
2023-02-18T12:38:54.521Z,9.81
2023-02-18T12:41:47.121Z,9.77
2023-02-18T12:44:45.384Z,9.75
2023-02-18T12:47:42.460Z,9.70
2023-02-18T12:50:33.324Z,9.68
2023-02-18T12:53:38.973Z,9.66
2023-02-18T12:56:26.831Z,9.63
2023-02-18T12:59:18.110Z,9.62
2023-02-18T13:01:59.902Z,9.57
2023-02-18T13:04:42.024Z,9.55
2023-02-18T13:07:33.735Z,9.55
2023-02-18T13:10:34.589Z,9.50
2023-02-18T13:13:12.025Z,9.47
2023-02-18T13:15:50.216Z,9.44
2023-02-18T13:18:37.398Z,9.43
2023-02-18T13:21:07.606Z,9.45
2023-02-18T13:24:06.366Z,9.49
2023-02-18T13:26:34.631Z,9.54
2023-02-18T13:29:27.679Z,9.55
2023-02-18T13:32:12.782Z,9.57
2023-02-18T13:34:56.908Z,9.66
2023-02-18T13:37:51.112Z,9.80
2023-02-18T13:40:21.728Z,9.90
2023-02-18T13:42:52.948Z,10.00
2023-02-18T13:45:23.821Z,10.03
2023-02-18T13:47:51.508Z,10.04
2023-02-18T13:50:24.482Z,10.08
2023-02-18T13:53:11.205Z,10.06
2023-02-18T13:55:57.965Z,10.06
2023-02-18T13:58:31.531Z,9.97
2023-02-18T14:01:06.106Z,9.88
2023-02-18T14:03:32.670Z,9.76
2023-02-18T14:05:59.844Z,9.68
2023-02-18T14:08:33.755Z,9.61
2023-02-18T14:11:12.216Z,9.60
2023-02-18T14:13:43.222Z,9.58
2023-02-18T14:16:11.360Z,9.57
2023-02-18T14:18:40.937Z,9.56
2023-02-18T14:21:13.194Z,9.54
2023-02-18T14:23:39.715Z,9.50
2023-02-18T14:26:21.852Z,9.46
2023-02-18T14:28:48.470Z,9.41
2023-02-18T14:31:15.234Z,9.40
2023-02-18T14:33:59.689Z,9.44
2023-02-18T14:36:48.197Z,9.50
2023-02-18T14:39:30.213Z,9.55
2023-02-18T14:42:18.496Z,9.55
2023-02-18T14:45:17.237Z,9.53
2023-02-18T14:47:49.888Z,9.49
2023-02-18T14:50:19.825Z,9.47
2023-02-18T14:53:05.392Z,9.46
2023-02-18T14:55:39.256Z,9.48
2023-02-18T14:58:32.263Z,9.50
2023-02-18T15:01:06.372Z,9.52
2023-02-18T15:03:33.640Z,9.53
2023-02-18T15:06:00.286Z,9.54
2023-02-18T15:08:27.033Z,9.56
2023-02-18T15:10:58.841Z,9.51
2023-02-18T15:13:27.897Z,9.43
2023-02-18T15:16:02.645Z,9.34
2023-02-18T15:18:36.849Z,9.24
2023-02-18T15:21:09.606Z,9.17
2023-02-18T15:23:40.261Z,9.07
2023-02-18T15:26:08.016Z,9.00
2023-02-18T15:28:43.389Z,8.93
2023-02-18T15:31:14.956Z,8.88
2023-02-18T15:33:48.163Z,8.82
2023-02-18T15:36:15.073Z,8.78
2023-02-18T15:38:41.724Z,8.72
2023-02-18T15:41:14.106Z,8.68
2023-02-18T15:44:11.732Z,8.64
2023-02-18T15:46:39.870Z,8.59
2023-02-18T15:49:08.234Z,8.54
2023-02-18T15:51:35.099Z,8.52
2023-02-18T15:54:03.474Z,8.53
2023-02-18T15:56:37.738Z,8.50
2023-02-18T15:59:33.316Z,8.46
2023-02-18T16:02:08.751Z,8.45
2023-02-18T16:04:41.013Z,8.46
2023-02-18T16:07:30.147Z,8.46
2023-02-18T16:10:15.628Z,8.48
2023-02-18T16:12:51.178Z,8.44
2023-02-18T16:15:27.605Z,8.43
2023-02-18T16:17:54.515Z,8.45
2023-02-18T16:20:36.579Z,8.46
2023-02-18T16:23:11.395Z,8.44
2023-02-18T16:25:47.109Z,8.45
2023-02-18T16:28:27.298Z,8.44
2023-02-18T16:30:54.214Z,8.43
2023-02-18T16:33:20.707Z,8.42
2023-02-18T16:35:50.294Z,8.41
2023-02-18T16:38:20.733Z,8.40
2023-02-18T16:40:48.091Z,8.40
2023-02-18T16:43:17.678Z,8.42
2023-02-18T16:45:50.508Z,8.43
2023-02-18T16:48:24.343Z,8.45
2023-02-18T16:50:51.412Z,8.44
2023-02-18T16:53:18.322Z,8.43
2023-02-18T16:55:44.723Z,8.41
2023-02-18T16:58:11.612Z,8.40
2023-02-18T17:00:39.647Z,8.39
2023-02-18T17:03:06.433Z,8.39
2023-02-18T17:05:34.835Z,8.40
2023-02-18T17:08:18.253Z,8.38
2023-02-18T17:10:47.775Z,8.38
2023-02-18T17:13:17.213Z,8.38
2023-02-18T17:15:47.544Z,8.40
2023-02-18T17:18:14.756Z,8.44
2023-02-18T17:20:41.398Z,8.46
2023-02-18T17:23:08.176Z,8.49
2023-02-18T17:25:38.420Z,8.51
2023-02-18T17:28:05.740Z,8.53
2023-02-18T17:30:36.416Z,8.53
2023-02-18T17:33:06.242Z,8.52
2023-02-18T17:35:33.366Z,8.53
2023-02-18T17:37:59.981Z,8.53
2023-02-18T17:40:28.410Z,8.53
2023-02-18T17:42:55.804Z,8.55
2023-02-18T17:45:33.357Z,8.54
2023-02-18T17:48:01.605Z,8.53
2023-02-18T17:50:30.271Z,8.50
2023-02-18T17:52:57.034Z,8.46
2023-02-18T17:55:23.987Z,8.42
2023-02-18T17:57:51.953Z,8.38
2023-02-18T18:00:22.155Z,8.34
2023-02-18T18:02:48.714Z,8.30
2023-02-18T18:05:30.234Z,8.27
2023-02-18T18:07:56.759Z,8.23
2023-02-18T18:10:25.161Z,8.22
2023-02-18T18:12:51.785Z,8.20
2023-02-18T18:15:31.935Z,8.17
2023-02-18T18:17:58.986Z,8.18
2023-02-18T18:20:27.040Z,8.31
2023-02-18T18:22:56.157Z,8.40
2023-02-18T18:25:45.235Z,8.45
2023-02-18T18:28:12.289Z,8.45
2023-02-18T18:30:42.073Z,8.47
2023-02-18T18:33:24.067Z,8.46
2023-02-18T18:35:52.846Z,8.41
2023-02-18T18:38:20.869Z,8.38
2023-02-18T18:40:48.451Z,8.35
2023-02-18T18:43:19.902Z,8.32
2023-02-18T18:45:47.509Z,8.29
2023-02-18T18:48:15.129Z,8.27
2023-02-18T18:50:43.061Z,8.24
2023-02-18T18:53:22.649Z,8.23
2023-02-18T18:55:51.735Z,8.25
2023-02-18T18:58:18.533Z,8.28
2023-02-18T19:00:44.999Z,8.35
2023-02-18T19:03:12.921Z,8.39
2023-02-18T19:05:43.816Z,8.45
2023-02-18T19:08:15.106Z,8.52
2023-02-18T19:10:42.786Z,8.57
2023-02-18T19:13:17.285Z,8.59
2023-02-18T19:15:44.484Z,8.59
2023-02-18T19:18:19.715Z,8.61
2023-02-18T19:20:47.018Z,8.62
2023-02-18T19:23:14.519Z,8.63
2023-02-18T19:25:41.560Z,8.62
2023-02-18T19:28:08.757Z,8.58
2023-02-18T19:30:37.228Z,8.55
2023-02-18T19:33:05.702Z,8.51
2023-02-18T19:35:32.976Z,8.50
2023-02-18T19:38:00.412Z,8.49
2023-02-18T19:40:30.444Z,8.44
2023-02-18T19:42:57.376Z,8.41
2023-02-18T19:45:24.754Z,8.41
2023-02-18T19:47:56.296Z,8.47
2023-02-18T19:50:24.153Z,8.46
2023-02-18T19:52:55.509Z,8.47
2023-02-18T19:55:22.755Z,8.48
2023-02-18T19:57:50.750Z,8.49
2023-02-18T20:00:20.466Z,8.48
2023-02-18T20:02:47.144Z,8.47
2023-02-18T20:05:14.637Z,8.47
2023-02-18T20:07:41.901Z,8.47
2023-02-18T20:10:12.496Z,8.44
2023-02-18T20:12:39.098Z,8.44
2023-02-18T20:15:06.335Z,8.40
2023-02-18T20:17:33.316Z,8.39
2023-02-18T20:19:59.960Z,8.38
2023-02-18T20:22:26.591Z,8.35
2023-02-18T20:24:53.135Z,8.33
2023-02-18T20:27:19.931Z,8.31
2023-02-18T20:29:46.464Z,8.30
2023-02-18T20:32:13.092Z,8.28
2023-02-18T20:34:39.661Z,8.29
2023-02-18T20:37:06.121Z,8.26
2023-02-18T20:39:32.773Z,8.27
2023-02-18T20:42:02.888Z,8.17
2023-02-18T20:44:32.209Z,8.09
2023-02-18T20:46:58.728Z,8.02
2023-02-18T20:49:25.183Z,7.96
2023-02-18T20:51:51.722Z,7.93
2023-02-18T20:54:19.541Z,7.93
2023-02-18T20:56:48.974Z,7.95
2023-02-18T20:59:18.180Z,7.91
2023-02-18T21:01:45.988Z,7.86
2023-02-18T21:04:15.442Z,7.83
2023-02-18T21:06:42.219Z,7.80
2023-02-18T21:09:08.759Z,7.80
2023-02-18T21:11:35.398Z,7.83
2023-02-18T21:14:01.940Z,7.86
2023-02-18T21:16:29.691Z,7.91
2023-02-18T21:18:56.184Z,7.92
2023-02-18T21:21:22.823Z,7.96
2023-02-18T21:23:50.143Z,8.00
2023-02-18T21:26:20.588Z,8.11
2023-02-18T21:28:49.894Z,8.26
2023-02-18T21:31:20.032Z,8.33
2023-02-18T21:33:47.230Z,8.34
2023-02-18T21:36:14.728Z,8.39
2023-02-18T21:38:42.072Z,8.38
2023-02-18T21:41:08.993Z,8.35
2023-02-18T21:43:35.774Z,8.35
2023-02-18T21:46:24.110Z,8.30
2023-02-18T21:48:51.299Z,8.22
2023-02-18T21:51:18.015Z,8.17
2023-02-18T21:53:44.758Z,8.16
2023-02-18T21:56:12.113Z,8.15
2023-02-18T21:58:38.611Z,8.14
2023-02-18T22:01:05.624Z,8.16
2023-02-18T22:03:32.782Z,8.14
2023-02-18T22:05:59.394Z,8.08
2023-02-18T22:08:25.911Z,8.03
2023-02-18T22:10:52.393Z,7.98
2023-02-18T22:13:18.914Z,7.90
2023-02-18T22:15:45.460Z,7.80
2023-02-18T22:18:11.971Z,7.68
2023-02-18T22:20:38.788Z,7.59
2023-02-18T22:23:05.337Z,7.52
2023-02-18T22:25:31.777Z,7.47
2023-02-18T22:27:58.192Z,7.46
2023-02-18T22:30:24.916Z,7.48
2023-02-18T22:32:51.429Z,7.49
2023-02-18T22:35:17.976Z,7.48
2023-02-18T22:37:44.448Z,7.45
2023-02-18T22:40:11.049Z,7.40
2023-02-18T22:42:37.682Z,7.36
2023-02-18T22:45:04.745Z,7.31
2023-02-18T22:47:31.382Z,7.26
2023-02-18T22:49:58.036Z,7.26
2023-02-18T22:52:24.663Z,7.21
2023-02-18T22:54:51.418Z,7.10
2023-02-18T22:57:18.837Z,7.02
2023-02-18T22:59:45.308Z,7.02
2023-02-18T23:02:12.281Z,7.01
2023-02-18T23:04:39.833Z,6.97
2023-02-18T23:07:06.481Z,6.89
2023-02-18T23:09:33.266Z,6.83
2023-02-18T23:11:59.762Z,6.80
2023-02-18T23:14:27.405Z,6.78
2023-02-18T23:16:56.724Z,6.75
2023-02-18T23:19:24.916Z,6.74
2023-02-18T23:21:51.588Z,6.72
2023-02-18T23:24:18.264Z,6.69
2023-02-18T23:26:44.728Z,6.68
2023-02-18T23:29:11.536Z,6.65
2023-02-18T23:31:38.527Z,6.66
2023-02-18T23:34:07.226Z,6.68
2023-02-18T23:36:35.738Z,6.66
2023-02-18T23:39:06.131Z,6.65
2023-02-18T23:41:32.564Z,6.62
2023-02-18T23:43:59.115Z,6.60
2023-02-18T23:46:26.993Z,6.59
2023-02-18T23:48:53.920Z,6.58
2023-02-18T23:51:23.085Z,6.59
2023-02-18T23:53:50.202Z,6.58
2023-02-18T23:56:22.579Z,6.58
2023-02-18T23:58:54.721Z,6.57
